Terminal Aerodrome Forecast
Issued by NWS

Home | Current Version | Previous Version | Graphics & Text | Print | Product List | Glossary On
Versions: 1 2 3 4 5 6 7 8 9 10 11 12 13 14 15 16 17
000
FTUS43 KBIS 222300
TAFMOT
TAF
KMOT 222336Z 2300/2324 32012KT 5SM BR OVC005
     FM230200 36014KT 4SM -SN BR OVC005
     FM231100 34016KT 4SM BR OVC008=

USA.gov is the U.S. government's official web portal to all federal, state and local government web resources and services.